Time;durP1;ratioP1;P1;durP2;ratioP2;P2;SDS_P1;SDS_P2;PMS_P1;PMS_P2;Temp;Humidity;BMP_temperature;BMP_pressure;BME280_temperature;BME280_humidity;BME280_pressure;Samples;Min_cycle;Max_cycle;Signal;HPM_P1;HPM_P2
2023/01/08 00:01:48;;;;;;;4.97;3.97;;;9.80;99.90;;;;;;7385105;19;20135;-73
2023/01/08 00:04:16;;;;;;;6.30;4.37;;;9.80;99.90;;;;;;7391468;19;20146;-74
2023/01/08 00:06:43;;;;;;;5.67;4.23;;;9.90;99.90;;;;;;7391367;19;20157;-74
2023/01/08 00:09:10;;;;;;;4.80;4.07;;;9.90;99.90;;;;;;7391945;19;20130;-74
2023/01/08 00:11:35;;;;;;;7.27;4.30;;;10.00;99.90;;;;;;7391387;19;20677;-73
2023/01/08 00:14:02;;;;;;;5.17;4.07;;;9.90;99.90;;;;;;7391046;19;20131;-75
2023/01/08 00:16:28;;;;;;;6.03;4.30;;;9.80;99.90;;;;;;7388836;19;20137;-73
2023/01/08 00:18:53;;;;;;;5.30;4.10;;;9.70;99.90;;;;;;7389028;19;20190;-74
2023/01/08 00:21:19;;;;;;;5.97;4.10;;;9.60;99.90;;;;;;7381198;19;20143;-74
2023/01/08 00:23:45;;;;;;;6.63;4.47;;;9.60;99.90;;;;;;7381418;19;20170;-73
2023/01/08 00:26:12;;;;;;;5.87;4.00;;;9.60;99.90;;;;;;7384676;19;20591;-73
2023/01/08 00:28:38;;;;;;;5.07;3.57;;;9.60;99.90;;;;;;7383931;19;20138;-73
2023/01/08 00:31:10;;;;;;;5.07;4.23;;;9.40;99.90;;;;;;7384531;19;20146;-74
2023/01/08 00:33:37;;;;;;;5.53;4.20;;;9.20;99.90;;;;;;7381484;19;20158;-74
2023/01/08 00:36:11;;;;;;;5.37;4.47;;;9.30;99.90;;;;;;7382904;19;20705;-76
2023/01/08 00:38:37;;;;;;;7.57;5.07;;;9.50;99.90;;;;;;7383404;19;20157;-74
2023/01/08 00:41:03;;;;;;;6.90;4.50;;;9.60;99.90;;;;;;7382253;19;20163;-75
2023/01/08 00:43:30;;;;;;;7.20;4.60;;;9.60;99.90;;;;;;7381922;19;20143;-73
2023/01/08 00:45:55;;;;;;;4.70;3.87;;;9.70;99.90;;;;;;7382274;19;20183;-74
2023/01/08 00:48:22;;;;;;;6.50;4.47;;;9.60;99.90;;;;;;7391263;19;20490;-73
2023/01/08 00:50:52;;;;;;;6.20;4.47;;;9.60;99.90;;;;;;7388442;19;20161;-74
2023/01/08 00:53:19;;;;;;;5.60;4.07;;;9.50;99.90;;;;;;7388794;19;20163;-75
2023/01/08 00:55:45;;;;;;;5.13;3.73;;;9.50;99.90;;;;;;7390047;19;20148;-74
2023/01/08 00:58:12;;;;;;;6.20;3.90;;;9.60;99.90;;;;;;7386658;19;20146;-74
2023/01/08 01:00:38;;;;;;;5.80;4.20;;;9.60;99.90;;;;;;7388620;19;20210;-73
2023/01/08 01:03:04;;;;;;;5.60;3.70;;;9.60;99.90;;;;;;7389301;19;20643;-74
2023/01/08 01:05:30;;;;;;;7.10;4.80;;;9.60;99.90;;;;;;7390169;19;20139;-74
2023/01/08 01:07:56;;;;;;;6.47;4.47;;;9.70;99.90;;;;;;7389433;19;20143;-74
2023/01/08 01:10:22;;;;;;;6.03;3.97;;;9.70;99.90;;;;;;7386175;19;20143;-74
2023/01/08 01:12:49;;;;;;;6.93;4.33;;;9.60;99.90;;;;;;7387485;19;20510;-75
2023/01/08 01:15:16;;;;;;;5.90;3.97;;;9.60;99.90;;;;;;7382892;19;20135;-74
2023/01/08 01:17:44;;;;;;;5.07;3.97;;;9.00;99.90;;;;;;7390090;19;20134;-74
2023/01/08 01:20:13;;;;;;;5.30;4.07;;;9.20;99.90;;;;;;7388407;19;20158;-74
2023/01/08 01:22:39;;;;;;;4.67;3.70;;;9.40;99.90;;;;;;7386238;19;20130;-74
2023/01/08 01:25:06;;;;;;;4.10;3.47;;;9.20;99.90;;;;;;7386334;19;20154;-73
2023/01/08 01:27:32;;;;;;;5.03;3.90;;;9.10;99.90;;;;;;7387369;19;20138;-74
2023/01/08 01:29:57;;;;;;;4.63;3.50;;;9.00;99.90;;;;;;7387410;19;20573;-76
2023/01/08 01:32:23;;;;;;;5.17;3.50;;;9.20;99.90;;;;;;7386957;19;20646;-74
2023/01/08 01:34:49;;;;;;;5.70;3.47;;;9.40;99.90;;;;;;7386029;19;20142;-75
2023/01/08 01:37:15;;;;;;;4.73;3.83;;;9.50;99.90;;;;;;7389490;19;20149;-75
2023/01/08 01:39:45;;;;;;;5.17;3.43;;;9.60;99.90;;;;;;7386522;19;20582;-75
2023/01/08 01:45:11;;;;;;;5.83;3.43;;;9.60;99.90;;;;;;7386487;19;20149;-74
2023/01/08 01:47:39;;;;;;;7.50;6.00;;;9.60;99.90;;;;;;7388234;19;20137;-74
2023/01/08 01:50:12;;;;;;;5.47;3.73;;;9.60;99.90;;;;;;7389899;19;20142;-74
2023/01/08 01:52:49;;;;;;;5.47;3.73;;;9.60;99.90;;;;;;7387177;19;20139;-73
2023/01/08 01:55:16;;;;;;;5.67;4.17;;;9.60;99.90;;;;;;7387827;19;20720;-73
2023/01/08 01:57:49;;;;;;;5.67;3.97;;;9.10;99.90;;;;;;7381881;19;20158;-75
2023/01/08 02:00:15;;;;;;;6.23;4.53;;;9.30;99.90;;;;;;7389202;19;20146;-74
2023/01/08 02:02:41;;;;;;;7.33;4.87;;;9.50;99.90;;;;;;7383384;19;20142;-73
2023/01/08 02:05:07;;;;;;;6.50;5.03;;;9.50;99.90;;;;;;7383188;19;20171;-75
2023/01/08 02:07:54;;;;;;;7.03;4.67;;;9.60;99.90;;;;;;7388933;19;20222;-75
2023/01/08 02:10:25;;;;;;;6.63;4.60;;;9.50;99.90;;;;;;7387088;19;20146;-75
2023/01/08 02:12:59;;;;;;;5.73;4.60;;;9.50;99.90;;;;;;7381149;19;20180;-74
2023/01/08 02:15:41;;;;;;;6.00;4.20;;;9.50;99.90;;;;;;7375210;19;20135;-75
2023/01/08 02:18:08;;;;;;;7.60;4.73;;;9.50;99.90;;;;;;7383463;19;20130;-75
2023/01/08 02:20:36;;;;;;;6.70;4.70;;;9.50;99.90;;;;;;7380127;19;20828;-74
2023/01/08 02:23:21;;;;;;;6.13;4.20;;;9.60;99.90;;;;;;7380446;19;20145;-73
2023/01/08 02:26:08;;;;;;;5.90;4.47;;;9.30;99.90;;;;;;7379207;19;20146;-74
2023/01/08 02:28:57;;;;;;;6.40;4.37;;;9.40;99.90;;;;;;7379546;19;20130;-73
2023/01/08 02:31:25;;;;;;;5.97;4.70;;;9.50;99.90;;;;;;7384324;19;20139;-74
2023/01/08 02:33:51;;;;;;;8.00;4.33;;;9.60;99.90;;;;;;7385974;19;20180;-73
2023/01/08 02:36:20;;;;;;;5.43;4.10;;;9.60;99.90;;;;;;7386328;19;20484;-75
2023/01/08 02:39:00;;;;;;;7.00;4.30;;;9.30;99.90;;;;;;7387246;19;20609;-75
2023/01/08 02:41:43;;;;;;;5.13;4.53;;;9.20;99.90;;;;;;7385559;19;20153;-75
2023/01/08 02:44:14;;;;;;;6.07;4.57;;;9.20;99.90;;;;;;7386507;19;20491;-74
2023/01/08 02:46:41;;;;;;;4.70;4.00;;;9.40;99.90;;;;;;7390867;19;20154;-74
2023/01/08 02:49:11;;;;;;;6.57;4.27;;;9.60;99.90;;;;;;7394665;19;20152;-76
2023/01/08 02:52:04;;;;;;;9.07;4.93;;;9.60;99.90;;;;;;7396486;19;20162;-73
2023/01/08 02:54:32;;;;;;;5.20;4.23;;;9.60;99.90;;;;;;7388640;19;20165;-74
2023/01/08 02:57:05;;;;;;;5.40;4.53;;;9.60;99.90;;;;;;7391990;19;20159;-75
2023/01/08 02:59:32;;;;;;;6.60;4.23;;;9.60;99.90;;;;;;7389541;19;20649;-74
2023/01/08 03:02:00;;;;;;;8.27;4.80;;;9.50;99.90;;;;;;7389498;19;20154;-76
2023/01/08 03:04:30;;;;;;;7.17;4.53;;;9.40;99.90;;;;;;7389118;19;20143;-73
2023/01/08 03:06:56;;;;;;;5.80;4.00;;;9.50;99.90;;;;;;7392986;19;20218;-73
2023/01/08 03:09:22;;;;;;;6.97;4.40;;;9.60;99.90;;;;;;7392757;19;20138;-76
2023/01/08 03:12:08;;;;;;;6.00;4.53;;;9.70;99.90;;;;;;7392559;19;20206;-75
2023/01/08 03:14:45;;;;;;;6.53;4.53;;;9.70;99.90;;;;;;7394404;19;20137;-75
2023/01/08 03:17:20;;;;;;;5.43;4.20;;;9.70;99.90;;;;;;7392529;19;20209;-74
2023/01/08 03:20:13;;;;;;;4.93;4.13;;;9.70;99.90;;;;;;7390428;19;20150;-74
2023/01/08 03:22:41;;;;;;;6.13;4.47;;;9.70;99.90;;;;;;7390795;19;20150;-75
2023/01/08 03:25:08;;;;;;;6.90;4.40;;;9.70;99.90;;;;;;7392836;19;20161;-74
2023/01/08 03:27:40;;;;;;;7.50;4.57;;;9.60;99.90;;;;;;7393634;19;20131;-73
2023/01/08 03:30:07;;;;;;;5.30;3.80;;;9.70;99.90;;;;;;7391896;19;20491;-72
2023/01/08 03:32:34;;;;;;;4.70;3.77;;;9.70;99.90;;;;;;7393764;19;20895;-75
2023/01/08 03:35:01;;;;;;;5.93;4.20;;;9.80;99.90;;;;;;7391458;19;20130;-75
2023/01/08 03:37:37;;;;;;;6.03;4.07;;;9.80;99.90;;;;;;7389257;19;20209;-75
2023/01/08 03:40:10;;;;;;;5.60;3.93;;;9.80;99.90;;;;;;7393486;19;20154;-74
2023/01/08 03:42:36;;;;;;;5.80;4.43;;;9.80;99.90;;;;;;7390144;19;20623;-74
2023/01/08 03:45:02;;;;;;;6.27;4.20;;;9.70;99.90;;;;;;7390251;19;20137;-74
2023/01/08 03:47:30;;;;;;;6.37;4.20;;;9.80;99.90;;;;;;7386261;19;20150;-73
2023/01/08 03:49:59;;;;;;;5.03;3.87;;;9.80;99.90;;;;;;7389391;19;20591;-75
2023/01/08 03:52:29;;;;;;;5.77;4.13;;;9.90;99.90;;;;;;7391872;19;20139;-74
2023/01/08 03:54:55;;;;;;;8.47;4.07;;;9.90;99.90;;;;;;7384928;19;20138;-74
2023/01/08 03:57:21;;;;;;;6.23;4.20;;;9.90;99.90;;;;;;7377499;19;20218;-74
2023/01/08 03:59:47;;;;;;;5.33;4.13;;;9.90;99.90;;;;;;7382698;19;20596;-75
2023/01/08 04:02:13;;;;;;;5.37;4.13;;;9.80;99.90;;;;;;7380722;19;20188;-75
2023/01/08 04:04:39;;;;;;;5.43;3.90;;;9.70;99.90;;;;;;7382952;19;20147;-73
2023/01/08 04:07:06;;;;;;;5.47;3.97;;;9.80;99.90;;;;;;7384654;19;20139;-75
2023/01/08 04:09:31;;;;;;;5.90;4.13;;;9.80;99.90;;;;;;7383557;19;20225;-75
2023/01/08 04:11:57;;;;;;;5.37;4.37;;;9.80;99.90;;;;;;7384156;19;20139;-75
2023/01/08 04:14:23;;;;;;;6.57;3.80;;;9.90;99.90;;;;;;7382246;19;20631;-73
2023/01/08 04:16:49;;;;;;;6.53;4.60;;;9.80;99.90;;;;;;7383389;19;20158;-74
2023/01/08 04:19:14;;;;;;;7.10;4.77;;;9.70;99.90;;;;;;7383619;19;20138;-76
2023/01/08 04:21:40;;;;;;;5.27;4.03;;;9.80;99.90;;;;;;7379894;19;20159;-74
2023/01/08 04:24:06;;;;;;;7.13;5.10;;;9.90;99.90;;;;;;7382221;19;20139;-73
2023/01/08 04:26:32;;;;;;;6.67;4.73;;;9.90;99.90;;;;;;7383841;19;20969;-74
2023/01/08 04:29:00;;;;;;;5.20;4.40;;;9.90;99.90;;;;;;7381764;19;20155;-74
2023/01/08 04:31:26;;;;;;;8.03;4.20;;;9.80;99.90;;;;;;7381625;19;20142;-74
2023/01/08 04:33:52;;;;;;;7.17;4.60;;;9.80;99.90;;;;;;7373608;19;20756;-74
2023/01/08 04:36:17;;;;;;;5.30;3.87;;;9.80;99.90;;;;;;7385126;19;20134;-75
2023/01/08 04:38:43;;;;;;;7.33;5.07;;;9.90;99.90;;;;;;7384083;19;20166;-72
2023/01/08 04:41:09;;;;;;;6.43;4.40;;;9.90;99.90;;;;;;7381118;19;20166;-74
2023/01/08 04:43:35;;;;;;;5.83;4.40;;;9.90;99.90;;;;;;7383179;19;20138;-75
2023/01/08 04:46:03;;;;;;;6.37;4.70;;;9.90;99.90;;;;;;7378945;19;20146;-74
2023/01/08 04:48:29;;;;;;;7.23;4.47;;;9.90;99.90;;;;;;7384826;19;20151;-73
2023/01/08 04:50:59;;;;;;;7.00;4.23;;;10.00;99.90;;;;;;7383477;19;20175;-75
2023/01/08 04:53:26;;;;;;;5.73;3.90;;;10.00;99.90;;;;;;7383755;19;20550;-74
2023/01/08 04:55:53;;;;;;;6.53;3.60;;;9.90;99.90;;;;;;7384792;19;20149;-74
2023/01/08 04:58:19;;;;;;;5.97;3.10;;;9.90;99.90;;;;;;7380699;19;20147;-74
2023/01/08 05:00:45;;;;;;;2.93;2.07;;;9.90;99.90;;;;;;7381785;19;20185;-75
2023/01/08 05:03:10;;;;;;;2.23;1.93;;;9.70;99.90;;;;;;7381438;19;20599;-73
2023/01/08 05:05:37;;;;;;;3.07;2.30;;;9.70;99.90;;;;;;7381174;19;20149;-74
2023/01/08 05:08:03;;;;;;;2.30;2.10;;;9.70;99.90;;;;;;7380369;19;20142;-76
2023/01/08 05:10:29;;;;;;;2.60;2.17;;;9.70;99.90;;;;;;7382567;19;20139;-75
2023/01/08 05:12:59;;;;;;;2.63;1.77;;;9.70;99.90;;;;;;7382197;19;20161;-74
2023/01/08 05:15:25;;;;;;;3.83;1.93;;;9.90;99.90;;;;;;7381367;19;20146;-74
2023/01/08 05:17:59;;;;;;;2.17;1.60;;;9.90;99.90;;;;;;7381605;19;20167;-74
2023/01/08 05:20:25;;;;;;;2.57;1.70;;;10.00;99.90;;;;;;7378137;19;20686;-74
2023/01/08 05:22:50;;;;;;;2.73;1.80;;;10.10;99.90;;;;;;7380094;19;20238;-73
2023/01/08 05:25:16;;;;;;;2.27;1.70;;;10.20;99.90;;;;;;7381812;19;20149;-75
2023/01/08 05:27:42;;;;;;;1.80;1.40;;;10.20;99.90;;;;;;7379667;19;20151;-74
2023/01/08 05:30:08;;;;;;;1.50;1.10;;;10.30;99.90;;;;;;7381898;19;20256;-74
2023/01/08 05:32:34;;;;;;;1.20;1.10;;;10.40;99.90;;;;;;7380922;19;20167;-74
2023/01/08 05:34:59;;;;;;;2.40;1.33;;;10.40;99.90;;;;;;7376040;19;20154;-74
2023/01/08 05:37:25;;;;;;;1.43;1.30;;;10.40;99.90;;;;;;7381823;19;20138;-75
2023/01/08 05:39:51;;;;;;;2.20;1.17;;;10.40;99.90;;;;;;7379160;19;20186;-74
2023/01/08 05:42:17;;;;;;;1.70;1.27;;;10.50;99.90;;;;;;7376035;19;20274;-74
2023/01/08 05:44:42;;;;;;;2.20;1.07;;;10.60;99.90;;;;;;7380391;19;20770;-74
2023/01/08 05:47:08;;;;;;;1.27;1.10;;;10.50;99.90;;;;;;7382490;19;20154;-73
2023/01/08 05:49:34;;;;;;;1.40;1.00;;;10.50;99.90;;;;;;7381620;19;20201;-73
2023/01/08 05:52:00;;;;;;;1.93;0.80;;;10.70;99.90;;;;;;7382224;19;20548;-75
2023/01/08 05:54:25;;;;;;;2.33;1.00;;;10.50;99.90;;;;;;7381292;19;20145;-74
2023/01/08 05:56:51;;;;;;;1.90;1.00;;;10.40;99.90;;;;;;7378021;19;20170;-75
2023/01/08 05:59:17;;;;;;;1.50;1.00;;;10.40;99.90;;;;;;7376334;19;20545;-74
2023/01/08 06:01:43;;;;;;;1.60;1.10;;;10.40;99.90;;;;;;7377066;19;20146;-73
2023/01/08 06:04:09;;;;;;;1.10;1.00;;;10.40;99.90;;;;;;7378036;19;20560;-74
2023/01/08 06:06:34;;;;;;;1.67;0.90;;;10.30;99.90;;;;;;7378860;19;20266;-75
2023/01/08 06:09:00;;;;;;;0.90;0.73;;;10.20;99.90;;;;;;7379750;19;20151;-76
2023/01/08 06:11:26;;;;;;;1.20;1.00;;;10.40;99.90;;;;;;7376941;19;20695;-76
2023/01/08 06:13:51;;;;;;;1.03;0.93;;;10.30;99.90;;;;;;7380140;19;20139;-75
2023/01/08 06:16:19;;;;;;;1.37;0.80;;;10.40;99.90;;;;;;7379106;19;20606;-75
2023/01/08 06:18:46;;;;;;;1.20;0.90;;;10.30;99.90;;;;;;7377862;19;20791;-74
2023/01/08 06:21:15;;;;;;;0.70;0.70;;;10.20;99.90;;;;;;7379856;19;20146;-74
2023/01/08 06:23:40;;;;;;;1.10;1.00;;;10.20;99.90;;;;;;7381381;19;20177;-74
2023/01/08 06:26:06;;;;;;;1.40;0.90;;;10.30;99.90;;;;;;7386573;19;20142;-76
2023/01/08 06:28:32;;;;;;;1.27;0.80;;;10.30;99.90;;;;;;7388098;19;20607;-75
2023/01/08 06:30:59;;;;;;;0.87;0.80;;;10.50;99.90;;;;;;7386773;19;20157;-76
2023/01/08 06:33:25;;;;;;;1.70;0.80;;;10.40;99.90;;;;;;7384523;19;21013;-74
2023/01/08 06:35:51;;;;;;;1.50;0.90;;;10.40;99.90;;;;;;7388465;19;20135;-76
2023/01/08 06:38:18;;;;;;;0.73;0.73;;;10.50;99.90;;;;;;7383644;19;20557;-76
2023/01/08 06:40:44;;;;;;;1.00;0.87;;;10.60;99.90;;;;;;7387655;19;20609;-76
2023/01/08 06:43:10;;;;;;;1.23;1.00;;;10.70;99.90;;;;;;7384968;19;20146;-74
2023/01/08 06:45:36;;;;;;;0.87;0.80;;;10.70;99.90;;;;;;7386784;19;20134;-75
2023/01/08 06:48:04;;;;;;;0.83;0.80;;;10.60;99.90;;;;;;7381016;19;20137;-77
2023/01/08 06:50:31;;;;;;;0.60;0.60;;;10.60;99.90;;;;;;7384964;19;20134;-76
2023/01/08 06:52:57;;;;;;;0.80;0.80;;;10.60;99.90;;;;;;7385434;19;20155;-76
2023/01/08 06:55:24;;;;;;;0.97;0.87;;;10.70;99.90;;;;;;7383738;19;20141;-76
2023/01/08 06:57:54;;;;;;;0.80;0.80;;;10.70;99.90;;;;;;7384544;19;20619;-75
2023/01/08 07:00:22;;;;;;;1.47;0.93;;;10.70;99.90;;;;;;7386198;19;20599;-74
2023/01/08 07:02:49;;;;;;;0.87;0.87;;;10.40;99.90;;;;;;7383844;19;20150;-76
2023/01/08 07:05:15;;;;;;;0.60;0.60;;;10.30;99.90;;;;;;7386029;19;20660;-75
2023/01/08 07:07:41;;;;;;;0.87;0.70;;;10.50;99.90;;;;;;7386058;19;20154;-75
2023/01/08 07:10:07;;;;;;;2.33;0.90;;;10.30;99.90;;;;;;7383371;19;20968;-75
2023/01/08 07:12:33;;;;;;;1.33;0.90;;;10.60;99.90;;;;;;7384218;19;20639;-75
2023/01/08 07:14:58;;;;;;;1.23;0.67;;;10.50;99.90;;;;;;7384981;19;20147;-74
2023/01/08 07:17:24;;;;;;;0.90;0.70;;;10.60;99.90;;;;;;7384678;19;20272;-76
2023/01/08 07:19:50;;;;;;;0.63;0.63;;;10.70;99.90;;;;;;7384214;19;20135;-77
2023/01/08 07:22:16;;;;;;;1.10;0.77;;;10.80;99.90;;;;;;7383948;19;20261;-75
2023/01/08 07:24:44;;;;;;;1.43;0.70;;;10.70;99.90;;;;;;7382986;19;20135;-76
2023/01/08 07:27:10;;;;;;;2.90;1.13;;;10.50;99.90;;;;;;7384608;19;20146;-76
2023/01/08 07:29:35;;;;;;;1.07;0.67;;;10.50;99.90;;;;;;7383713;19;20201;-75
2023/01/08 07:32:01;;;;;;;3.30;1.30;;;10.50;99.90;;;;;;7383904;19;20818;-76
2023/01/08 07:34:27;;;;;;;1.00;0.80;;;10.50;99.90;;;;;;7380450;19;20139;-77
2023/01/08 07:36:53;;;;;;;1.87;0.73;;;10.60;99.90;;;;;;7382316;19;20155;-76
2023/01/08 07:39:19;;;;;;;4.13;1.07;;;10.40;99.90;;;;;;7383640;19;20139;-75
2023/01/08 07:41:44;;;;;;;1.90;1.07;;;10.30;99.90;;;;;;7382214;19;20150;-74
2023/01/08 07:44:11;;;;;;;2.00;0.90;;;10.40;99.90;;;;;;7383325;19;20598;-74
2023/01/08 07:46:37;;;;;;;2.07;0.70;;;10.30;99.90;;;;;;7383096;19;20500;-74
2023/01/08 07:49:03;;;;;;;0.97;0.80;;;10.20;99.90;;;;;;7384127;19;20145;-75
2023/01/08 07:51:29;;;;;;;2.00;0.80;;;10.20;99.90;;;;;;7383363;19;20268;-76
2023/01/08 07:53:55;;;;;;;0.87;0.80;;;10.40;99.90;;;;;;7385012;19;20957;-75
2023/01/08 07:56:21;;;;;;;1.13;0.90;;;10.40;99.90;;;;;;7382662;19;20135;-75
2023/01/08 07:58:47;;;;;;;1.03;0.70;;;10.50;99.90;;;;;;7382917;19;20153;-74
2023/01/08 08:01:14;;;;;;;4.50;2.33;;;10.40;99.90;;;;;;7381015;19;20138;-75
2023/01/08 08:03:40;;;;;;;1.53;1.00;;;10.30;99.90;;;;;;7380419;19;20603;-76
2023/01/08 08:06:07;;;;;;;2.20;1.70;;;10.30;99.90;;;;;;7381241;19;20150;-74
2023/01/08 08:08:33;;;;;;;1.00;0.90;;;10.40;99.90;;;;;;7381888;19;20150;-75
2023/01/08 08:10:58;;;;;;;1.00;0.90;;;10.30;99.90;;;;;;7382507;19;20142;-75
2023/01/08 08:13:24;;;;;;;1.50;0.90;;;10.40;99.90;;;;;;7384435;19;20609;-76
2023/01/08 08:15:50;;;;;;;1.23;0.70;;;10.30;99.90;;;;;;7382733;19;20591;-75
2023/01/08 08:18:16;;;;;;;0.67;0.67;;;10.20;99.90;;;;;;7382583;19;20142;-75
2023/01/08 08:20:42;;;;;;;1.30;0.90;;;10.20;99.90;;;;;;7381608;19;20138;-74
2023/01/08 08:23:11;;;;;;;1.03;0.60;;;10.20;99.90;;;;;;7381034;19;20137;-75
2023/01/08 08:25:37;;;;;;;1.23;0.80;;;10.20;99.90;;;;;;7381745;19;20138;-74
2023/01/08 08:28:03;;;;;;;0.70;0.70;;;10.20;99.90;;;;;;7379016;19;20147;-74
2023/01/08 08:30:34;;;;;;;0.80;0.73;;;10.10;99.90;;;;;;7382575;19;20134;-75
2023/01/08 08:33:01;;;;;;;2.93;0.90;;;10.30;99.90;;;;;;7381475;19;20165;-75
2023/01/08 08:35:28;;;;;;;1.83;0.70;;;10.10;99.90;;;;;;7382645;19;20141;-74
2023/01/08 08:37:55;;;;;;;1.40;1.03;;;10.30;99.90;;;;;;7381937;19;20159;-75
2023/01/08 08:40:21;;;;;;;1.00;0.80;;;10.10;99.90;;;;;;7382976;19;20146;-75
2023/01/08 08:42:46;;;;;;;1.27;0.70;;;10.00;99.90;;;;;;7380539;19;20150;-75
2023/01/08 08:45:12;;;;;;;1.50;1.40;;;10.00;99.90;;;;;;7382703;19;20173;-74
2023/01/08 08:47:38;;;;;;;1.40;0.80;;;10.00;99.90;;;;;;7382104;19;20150;-76
2023/01/08 08:50:06;;;;;;;1.23;0.90;;;10.00;99.90;;;;;;7382568;19;20155;-75
2023/01/08 08:52:33;;;;;;;3.00;1.00;;;10.10;99.90;;;;;;7379164;19;20143;-75
2023/01/08 08:54:59;;;;;;;1.03;0.90;;;10.20;99.90;;;;;;7382531;19;20150;-74
2023/01/08 08:57:26;;;;;;;2.60;0.60;;;10.30;99.90;;;;;;7381091;19;20222;-75
2023/01/08 08:59:52;;;;;;;0.90;0.90;;;10.50;99.90;;;;;;7381120;19;20141;-75
2023/01/08 09:02:18;;;;;;;1.43;0.90;;;10.50;99.90;;;;;;7380508;19;20566;-74
2023/01/08 09:04:43;;;;;;;1.30;0.90;;;10.40;99.90;;;;;;7383322;19;20138;-75
2023/01/08 09:07:09;;;;;;;3.37;1.00;;;10.40;99.90;;;;;;7384284;19;20583;-75
2023/01/08 09:09:35;;;;;;;0.97;0.87;;;10.40;99.90;;;;;;7382240;19;20155;-75
2023/01/08 09:12:01;;;;;;;1.40;1.00;;;10.30;99.90;;;;;;7384407;19;20187;-75
2023/01/08 09:14:27;;;;;;;1.47;0.90;;;10.40;99.90;;;;;;7381639;19;20255;-77
2023/01/08 09:16:52;;;;;;;1.53;0.73;;;10.20;99.90;;;;;;7379010;19;20221;-75
2023/01/08 09:19:18;;;;;;;1.00;0.80;;;10.20;99.90;;;;;;7380383;19;20139;-74
2023/01/08 09:21:44;;;;;;;1.73;0.90;;;10.20;99.90;;;;;;7387357;19;20158;-75
2023/01/08 09:24:10;;;;;;;1.07;0.97;;;10.30;99.90;;;;;;7389368;19;20154;-75
2023/01/08 09:26:36;;;;;;;0.73;0.70;;;10.30;99.90;;;;;;7391954;19;20127;-75
2023/01/08 09:29:02;;;;;;;0.70;0.60;;;10.40;99.90;;;;;;7389950;19;20129;-78
2023/01/08 09:31:28;;;;;;;2.50;0.80;;;10.50;99.90;;;;;;7392336;19;20635;-75
2023/01/08 09:33:56;;;;;;;0.70;0.70;;;10.70;99.90;;;;;;7385817;19;20174;-75
2023/01/08 09:36:21;;;;;;;1.60;1.00;;;10.60;99.90;;;;;;7389347;19;20161;-76
2023/01/08 09:38:47;;;;;;;1.37;1.17;;;10.70;99.90;;;;;;7389712;19;20135;-75
2023/01/08 09:41:27;;;;;;;1.67;1.10;;;10.70;99.90;;;;;;7388802;19;20158;-76
2023/01/08 09:43:55;;;;;;;1.00;0.80;;;10.70;99.90;;;;;;7389929;19;20146;-75
2023/01/08 09:46:24;;;;;;;1.63;0.90;;;10.60;99.90;;;;;;7389660;19;20158;-76
2023/01/08 09:48:52;;;;;;;1.83;1.10;;;10.80;99.90;;;;;;7387335;19;20158;-74
2023/01/08 09:51:19;;;;;;;3.07;1.00;;;10.80;99.90;;;;;;7390051;19;20158;-75
2023/01/08 09:53:55;;;;;;;1.20;0.87;;;10.90;99.90;;;;;;7389192;19;20130;-76
2023/01/08 09:56:20;;;;;;;1.93;1.00;;;10.70;99.90;;;;;;7387041;19;20210;-75
2023/01/08 09:58:55;;;;;;;1.17;0.80;;;10.60;99.90;;;;;;7388586;19;20627;-76
2023/01/08 10:01:26;;;;;;;0.93;0.70;;;10.60;99.90;;;;;;7390112;19;20495;-74
2023/01/08 10:04:11;;;;;;;2.00;1.00;;;10.90;99.90;;;;;;7387203;19;20152;-76
2023/01/08 10:06:38;;;;;;;1.30;0.67;;;11.00;99.90;;;;;;7388730;19;20142;-75
2023/01/08 10:09:04;;;;;;;0.90;0.80;;;11.00;99.90;;;;;;7385748;19;20158;-76
2023/01/08 10:11:43;;;;;;;0.80;0.70;;;10.80;99.90;;;;;;7390402;19;20624;-75
2023/01/08 10:14:25;;;;;;;2.83;0.97;;;10.90;99.90;;;;;;7391241;19;20140;-75
2023/01/08 10:17:14;;;;;;;1.30;0.73;;;10.90;99.90;;;;;;7386960;19;20146;-75
2023/01/08 10:19:42;;;;;;;1.23;0.80;;;11.00;99.90;;;;;;7388198;19;20159;-75
2023/01/08 10:22:20;;;;;;;1.10;0.77;;;11.00;99.90;;;;;;7387464;19;20153;-74
2023/01/08 10:24:46;;;;;;;0.77;0.77;;;11.00;99.90;;;;;;7391562;19;20135;-75
2023/01/08 10:27:18;;;;;;;1.00;0.90;;;11.00;99.90;;;;;;7385216;19;20131;-75
2023/01/08 10:29:44;;;;;;;1.60;0.77;;;11.00;99.90;;;;;;7391476;19;20147;-76
2023/01/08 10:32:27;;;;;;;1.47;0.83;;;10.90;99.90;;;;;;7390147;19;20159;-74
2023/01/08 10:34:57;;;;;;;1.53;1.20;;;10.90;99.90;;;;;;7381822;19;20130;-75
2023/01/08 10:37:28;;;;;;;0.90;0.90;;;11.00;99.90;;;;;;7382346;19;20591;-76
2023/01/08 10:40:16;;;;;;;1.10;0.70;;;11.40;99.90;;;;;;7388151;19;20162;-75
2023/01/08 10:42:42;;;;;;;2.83;0.83;;;11.20;99.90;;;;;;7387819;19;20143;-76
2023/01/08 10:45:21;;;;;;;1.30;0.90;;;11.30;99.90;;;;;;7388101;19;20164;-79
2023/01/08 10:47:50;;;;;;;2.17;0.90;;;11.40;99.90;;;;;;7394754;19;20493;-77
2023/01/08 10:50:43;;;;;;;2.57;0.70;;;11.30;99.90;;;;;;7388552;19;20610;-75
2023/01/08 10:53:24;;;;;;;1.70;0.90;;;11.30;99.90;;;;;;7387992;19;20143;-76
2023/01/08 10:55:57;;;;;;;0.87;0.80;;;11.30;99.90;;;;;;7388869;19;20192;-75
2023/01/08 10:58:24;;;;;;;2.23;1.63;;;11.10;99.90;;;;;;7389335;19;20131;-75
2023/01/08 11:00:52;;;;;;;1.33;1.20;;;11.00;99.90;;;;;;7389905;19;20730;-75
2023/01/08 11:03:30;;;;;;;0.97;0.83;;;11.00;99.90;;;;;;7389921;19;20883;-77
2023/01/08 11:05:56;;;;;;;1.80;0.93;;;11.10;99.90;;;;;;7390213;19;20506;-76
2023/01/08 11:08:26;;;;;;;2.63;0.70;;;11.20;99.90;;;;;;7393347;19;20199;-77
2023/01/08 11:11:00;;;;;;;0.80;0.70;;;11.30;99.90;;;;;;7397471;19;21012;-77
2023/01/08 11:13:27;;;;;;;1.23;0.70;;;11.50;99.90;;;;;;7395074;19;20154;-75
2023/01/08 11:16:07;;;;;;;0.83;0.53;;;11.40;99.90;;;;;;7396016;19;20135;-74
2023/01/08 11:18:48;;;;;;;0.73;0.63;;;11.30;99.90;;;;;;7396231;19;20131;-76
2023/01/08 11:21:23;;;;;;;1.90;0.70;;;11.30;99.90;;;;;;7400224;19;20130;-75
2023/01/08 11:24:10;;;;;;;1.17;0.93;;;11.40;99.90;;;;;;7394400;19;20140;-76
2023/01/08 11:26:39;;;;;;;1.70;0.87;;;11.40;99.90;;;;;;7395855;19;20542;-75
2023/01/08 11:29:17;;;;;;;1.10;0.70;;;11.30;99.90;;;;;;7395177;19;20644;-78
2023/01/08 11:32:05;;;;;;;4.13;0.60;;;11.50;99.90;;;;;;7395802;19;20215;-75
2023/01/08 11:34:37;;;;;;;0.93;0.60;;;11.40;99.90;;;;;;7394097;19;20153;-74
2023/01/08 11:37:21;;;;;;;0.82;0.80;;;11.40;99.90;;;;;;7388017;19;20623;-77
2023/01/08 11:39:48;;;;;;;0.70;0.70;;;11.40;99.90;;;;;;7387457;19;20135;-76
2023/01/08 11:42:32;;;;;;;0.80;0.60;;;11.40;99.90;;;;;;7386854;19;20158;-76
2023/01/08 11:45:10;;;;;;;6.67;2.00;;;11.40;99.90;;;;;;7391874;19;20134;-78
2023/01/08 11:47:57;;;;;;;1.30;1.07;;;11.40;99.90;;;;;;7394370;19;20161;-78
2023/01/08 11:50:41;;;;;;;1.50;0.97;;;11.50;99.90;;;;;;7388743;19;20142;-79
2023/01/08 11:53:16;;;;;;;0.90;0.73;;;11.50;99.90;;;;;;7392063;19;20138;-75
2023/01/08 11:55:44;;;;;;;0.83;0.70;;;11.50;99.90;;;;;;7395150;19;20130;-77
2023/01/08 11:58:23;;;;;;;0.70;0.67;;;11.60;99.90;;;;;;7392236;19;20561;-77
2023/01/08 12:01:01;;;;;;;1.20;0.70;;;11.70;99.90;;;;;;7393762;19;20499;-76
2023/01/08 12:03:38;;;;;;;1.10;0.77;;;11.70;99.90;;;;;;7393273;19;20130;-76
2023/01/08 12:06:43;;;;;;;1.80;0.70;;;11.50;99.90;;;;;;7392574;19;20134;-77
2023/01/08 12:09:19;;;;;;;0.93;0.80;;;11.60;99.90;;;;;;7392144;19;20131;-76
2023/01/08 12:11:50;;;;;;;1.03;0.70;;;11.40;99.90;;;;;;7398526;19;20465;-76
2023/01/08 12:14:34;;;;;;;0.53;0.50;;;11.40;99.90;;;;;;7392341;19;20165;-77
2023/01/08 12:17:06;;;;;;;1.10;0.80;;;11.40;99.90;;;;;;7393875;19;20142;-76
2023/01/08 12:20:08;;;;;;;0.70;0.70;;;11.40;99.90;;;;;;7391042;19;20138;-77
2023/01/08 12:22:40;;;;;;;0.70;0.70;;;11.50;99.90;;;;;;7390938;19;20138;-77
2023/01/08 12:25:31;;;;;;;0.60;0.60;;;11.30;99.90;;;;;;7397268;19;20154;-79
2023/01/08 12:28:19;;;;;;;1.97;0.67;;;11.30;99.90;;;;;;7394042;19;20506;-77
2023/01/08 12:30:51;;;;;;;1.50;0.70;;;11.30;99.90;;;;;;7392996;19;20161;-76
2023/01/08 12:33:48;;;;;;;0.67;0.60;;;11.40;99.90;;;;;;7394217;19;20171;-76
2023/01/08 12:36:25;;;;;;;0.80;0.60;;;11.70;99.90;;;;;;7394675;19;20149;-77
2023/01/08 12:39:07;;;;;;;1.30;0.70;;;11.60;99.90;;;;;;7397888;19;20146;-78
2023/01/08 12:41:35;;;;;;;0.90;0.53;;;11.50;99.90;;;;;;7391463;19;20151;-78
2023/01/08 12:44:10;;;;;;;0.97;0.60;;;11.40;99.90;;;;;;7391669;19;20143;-76
2023/01/08 12:46:44;;;;;;;0.60;0.60;;;11.60;99.90;;;;;;7393731;19;20606;-77
2023/01/08 12:49:15;;;;;;;2.00;0.70;;;11.50;99.90;;;;;;7392547;19;20158;-76
2023/01/08 12:52:04;;;;;;;0.87;0.70;;;11.50;99.90;;;;;;7391725;19;20202;-76
2023/01/08 12:54:40;;;;;;;0.67;0.50;;;11.50;99.90;;;;;;7392179;19;20685;-76
2023/01/08 12:57:12;;;;;;;1.00;0.90;;;11.60;99.90;;;;;;7391071;19;20137;-76
2023/01/08 12:59:44;;;;;;;1.17;0.90;;;11.60;99.90;;;;;;7393446;19;20242;-76
2023/01/08 13:02:48;;;;;;;1.85;1.00;;;11.40;99.90;;;;;;7388275;19;20146;-77
2023/01/08 13:05:17;;;;;;;1.90;0.80;;;11.60;99.90;;;;;;7391495;19;20566;-75
2023/01/08 13:07:45;;;;;;;0.77;0.70;;;11.50;99.90;;;;;;7392714;19;20231;-77